Time;durP1;ratioP1;P1;durP2;ratioP2;P2;SDS_P1;SDS_P2;PMS_P1;PMS_P2;Temp;Humidity;BMP_temperature;BMP_pressure;BME280_temperature;BME280_humidity;BME280_pressure;Samples;Min_cycle;Max_cycle;Signal;HPM_P1;HPM_P2
2022/08/02 00:03:36;;;;;;;4.95;3.15;;;;;;;;;;5111853;27;20416;-63
2022/08/02 00:06:56;;;;;;;5.13;2.90;;;;;;;;;;5111790;27;20430;-63
2022/08/02 00:09:22;;;;;;;5.07;2.53;;;;;;;;;;5111337;28;20028;-63
2022/08/02 00:13:53;;;;;;;3.83;2.67;;;;;;;;;;5173485;27;20117;-63
2022/08/02 00:16:34;;;;;;;5.57;3.42;;;;;;;;;;5173494;27;20303;-62
2022/08/02 00:19:09;;;;;;;5.47;3.05;;;;;;;;;;5111239;27;20393;-62
2022/08/02 00:21:36;;;;;;;4.13;2.70;;;;;;;;;;5110026;28;20059;-63
2022/08/02 00:24:02;;;;;;;3.67;2.55;;;;;;;;;;5109992;28;20024;-63
2022/08/02 00:26:28;;;;;;;4.50;2.65;;;;;;;;;;5110984;28;20434;-63
2022/08/02 00:28:54;;;;;;;6.30;3.30;;;;;;;;;;5109992;28;20027;-63
2022/08/02 00:31:20;;;;;;;4.13;2.67;;;;;;;;;;5109835;28;20024;-63
2022/08/02 00:38:08;;;;;;;3.38;2.40;;;;;;;;;;5111406;27;20749;-63
2022/08/02 00:40:34;;;;;;;5.45;2.20;;;;;;;;;;5109716;28;20032;-63
2022/08/02 00:43:33;;;;;;;4.45;2.42;;;;;;;;;;5111523;27;20127;-63
2022/08/02 00:45:59;;;;;;;4.78;2.72;;;;;;;;;;5111531;28;20030;-63
2022/08/02 00:49:18;;;;;;;4.50;2.80;;;;;;;;;;5111481;27;20462;-64
2022/08/02 00:51:44;;;;;;;4.20;2.45;;;;;;;;;;5111337;28;20111;-63
2022/08/02 00:54:10;;;;;;;6.55;3.20;;;;;;;;;;5109559;28;20031;-63
2022/08/02 00:56:36;;;;;;;3.90;2.72;;;;;;;;;;5109975;28;20483;-63
2022/08/02 01:01:39;;;;;;;4.30;2.90;;;;;;;;;;5111222;27;20397;-62
2022/08/02 01:04:09;;;;;;;5.80;2.90;;;;;;;;;;5111296;28;20092;-63
2022/08/02 01:06:36;;;;;;;4.03;2.30;;;;;;;;;;5109985;28;20023;-63
2022/08/02 01:09:03;;;;;;;4.70;2.88;;;;;;;;;;5110966;28;20426;-63
2022/08/02 01:11:29;;;;;;;3.58;2.45;;;;;;;;;;5111153;28;20031;-63
2022/08/02 01:13:57;;;;;;;6.28;2.63;;;;;;;;;;5111135;28;20027;-62
2022/08/02 01:16:25;;;;;;;4.57;2.83;;;;;;;;;;5110747;28;20043;-63
2022/08/02 01:18:54;;;;;;;4.82;2.60;;;;;;;;;;5111079;28;20030;-62
2022/08/02 01:21:23;;;;;;;6.10;2.90;;;;;;;;;;5109670;28;20032;-63
2022/08/02 01:23:58;;;;;;;4.72;2.67;;;;;;;;;;5110690;28;20019;-63
2022/08/02 01:26:24;;;;;;;4.18;2.45;;;;;;;;;;5110939;28;20024;-62
2022/08/02 01:31:06;;;;;;;4.13;2.65;;;;;;;;;;5111039;27;20396;-63
2022/08/02 01:34:10;;;;;;;4.90;2.58;;;;;;;;;;5111862;27;20413;-62
2022/08/02 01:36:38;;;;;;;6.60;3.25;;;;;;;;;;5126729;28;20035;-63
2022/08/02 01:39:05;;;;;;;5.57;3.38;;;;;;;;;;5111352;28;20414;-63
2022/08/02 01:41:33;;;;;;;4.07;2.83;;;;;;;;;;5111297;28;20020;-63
2022/08/02 01:44:41;;;;;;;4.78;3.17;;;;;;;;;;5111143;27;20422;-62
2022/08/02 01:47:10;;;;;;;6.65;3.15;;;;;;;;;;5111364;28;20036;-63
2022/08/02 01:49:38;;;;;;;5.95;3.17;;;;;;;;;;5111541;28;20024;-63
2022/08/02 01:53:29;;;;;;;6.93;3.58;;;;;;;;;;5111479;27;20393;-62
2022/08/02 01:55:57;;;;;;;4.57;3.15;;;;;;;;;;5111365;28;20035;-63
2022/08/02 02:00:08;;;;;;;6.03;3.20;;;;;;;;;;5112101;27;20400;-62
2022/08/02 02:03:49;;;;;;;5.45;3.17;;;;;;;;;;5111765;27;20123;-62
2022/08/02 02:06:16;;;;;;;3.83;2.80;;;;;;;;;;5110927;28;20547;-63
2022/08/02 02:08:43;;;;;;;5.05;3.15;;;;;;;;;;5110046;28;20020;-63
2022/08/02 02:11:09;;;;;;;6.85;3.63;;;;;;;;;;5110933;28;20391;-64
2022/08/02 02:14:48;;;;;;;6.28;2.90;;;;;;;;;;5071613;28;20399;-62
2022/08/02 02:17:15;;;;;;;4.90;2.97;;;;;;;;;;5070839;28;20515;-63
2022/08/02 02:19:42;;;;;;;6.25;3.50;;;;;;;;;;5070325;28;20477;-62
2022/08/02 02:23:52;;;;;;;4.65;2.95;;;;;;;;;;5111680;27;20392;-62
2022/08/02 02:27:14;;;;;;;5.45;2.90;;;;;;;;;;5110975;27;20384;-63
2022/08/02 02:29:43;;;;;;;5.40;2.88;;;;;;;;;;5110128;28;20392;-64
2022/08/02 02:32:10;;;;;;;5.45;2.75;;;;;;;;;;5110882;28;20042;-64
2022/08/02 02:34:40;;;;;;;4.70;2.70;;;;;;;;;;5111259;28;20499;-64
2022/08/02 02:37:11;;;;;;;4.60;2.38;;;;;;;;;;5111391;28;20061;-64
2022/08/02 02:41:19;;;;;;;4.43;2.75;;;;;;;;;;5110952;27;20430;-63
2022/08/02 02:43:46;;;;;;;4.50;2.95;;;;;;;;;;5111307;28;20039;-63
2022/08/02 02:46:50;;;;;;;6.63;3.45;;;;;;;;;;5111153;27;20384;-63
2022/08/02 02:49:17;;;;;;;4.47;3.00;;;;;;;;;;5127166;28;20036;-63
2022/08/02 02:55:34;;;;;;;4.60;2.78;;;;;;;;;;5111011;27;20424;-62
2022/08/02 02:58:01;;;;;;;6.00;2.67;;;;;;;;;;5127182;28;20036;-62
2022/08/02 03:03:13;;;;;;;6.40;2.95;;;;;;;;;;5111607;28;20027;-62
2022/08/02 03:05:39;;;;;;;5.53;2.83;;;;;;;;;;5111213;28;20492;-63
2022/08/02 03:09:27;;;;;;;5.82;3.55;;;;;;;;;;5091398;27;20436;-63
2022/08/02 03:11:54;;;;;;;5.10;3.15;;;;;;;;;;5091303;28;20483;-63
2022/08/02 03:16:02;;;;;;;4.32;2.92;;;;;;;;;;5111120;27;20477;-62
2022/08/02 03:18:35;;;;;;;5.05;2.95;;;;;;;;;;5111389;28;20028;-62
2022/08/02 03:21:13;;;;;;;3.72;2.42;;;;;;;;;;5071635;28;20455;-62
2022/08/02 03:23:40;;;;;;;3.85;2.63;;;;;;;;;;5070406;28;20087;-63
2022/08/02 03:26:07;;;;;;;4.20;2.67;;;;;;;;;;5069457;28;20032;-63
2022/08/02 03:29:15;;;;;;;6.80;3.22;;;;;;;;;;5111072;27;20476;-63
2022/08/02 03:39:12;;;;;;;5.40;3.25;;;;;;;;;;5112244;27;20397;-62
2022/08/02 03:41:38;;;;;;;5.13;3.13;;;;;;;;;;5111370;28;20024;-62
2022/08/02 03:44:06;;;;;;;4.82;2.85;;;;;;;;;;5109508;28;20030;-62
2022/08/02 03:47:24;;;;;;;4.25;2.50;;;;;;;;;;5111475;27;20400;-63
2022/08/02 03:49:50;;;;;;;3.78;2.20;;;;;;;;;;5109704;28;20028;-63
2022/08/02 03:52:17;;;;;;;6.00;3.40;;;;;;;;;;5110039;28;20110;-63
2022/08/02 03:57:31;;;;;;;8.48;4.60;;;;;;;;;;5111432;27;20412;-62
2022/08/02 03:59:57;;;;;;;7.22;3.97;;;;;;;;;;5111650;28;20035;-63
2022/08/02 04:02:23;;;;;;;7.82;4.75;;;;;;;;;;5111257;28;20020;-63
2022/08/02 04:04:50;;;;;;;8.15;4.43;;;;;;;;;;5111110;28;20027;-63
2022/08/02 04:08:08;;;;;;;6.22;3.67;;;;;;;;;;5111606;27;20396;-63
2022/08/02 04:11:29;;;;;;;6.88;4.05;;;;;;;;;;5110925;28;20433;-63
2022/08/02 04:19:14;;;;;;;6.72;3.85;;;;;;;;;;5111118;27;20485;-63
2022/08/02 04:23:48;;;;;;;9.20;4.13;;;;;;;;;;5111389;27;20455;-62
2022/08/02 04:26:14;;;;;;;6.55;3.80;;;;;;;;;;5110868;28;20052;-63
2022/08/02 04:28:41;;;;;;;6.45;4.18;;;;;;;;;;5110028;28;20020;-63
2022/08/02 04:37:33;;;;;;;5.53;3.55;;;;;;;;;;5111829;27;20517;-63
2022/08/02 04:40:00;;;;;;;5.43;2.97;;;;;;;;;;5110953;28;20402;-63
2022/08/02 04:42:26;;;;;;;6.20;3.08;;;;;;;;;;5110046;28;20028;-63
2022/08/02 04:45:08;;;;;;;6.88;3.30;;;;;;;;;;5112079;27;20471;-63
2022/08/02 04:51:51;;;;;;;6.15;3.60;;;;;;;;;;5071590;28;20799;-62
2022/08/02 04:54:17;;;;;;;6.75;3.33;;;;;;;;;;5070449;28;20029;-63
2022/08/02 04:57:58;;;;;;;6.07;3.88;;;;;;;;;;5112057;27;20469;-63
2022/08/02 05:00:26;;;;;;;4.93;3.35;;;;;;;;;;5110990;28;20039;-63
2022/08/02 05:02:52;;;;;;;4.72;3.13;;;;;;;;;;5109975;28;20396;-62
2022/08/02 05:05:19;;;;;;;6.20;2.78;;;;;;;;;;5109999;28;20085;-63
2022/08/02 05:08:33;;;;;;;4.00;2.75;;;;;;;;;;5111114;27;20416;-63
2022/08/02 05:17:14;;;;;;;4.82;3.15;;;;;;;;;;5111678;27;20385;-63
2022/08/02 05:19:41;;;;;;;7.72;3.03;;;;;;;;;;5111373;28;20024;-63
2022/08/02 05:25:44;;;;;;;3.90;2.80;;;;;;;;;;5111735;27;20453;-63
2022/08/02 05:28:10;;;;;;;3.50;2.42;;;;;;;;;;5111406;28;20024;-63
2022/08/02 05:30:36;;;;;;;4.55;2.30;;;;;;;;;;5110034;28;20020;-63
2022/08/02 05:33:03;;;;;;;3.25;2.20;;;;;;;;;;5111260;28;20471;-62
2022/08/02 05:36:53;;;;;;;4.78;2.40;;;;;;;;;;5111049;27;20393;-64
2022/08/02 05:39:19;;;;;;;4.15;2.30;;;;;;;;;;5110347;28;20119;-62
2022/08/02 05:41:46;;;;;;;4.20;2.58;;;;;;;;;;5111270;28;20015;-63
2022/08/02 05:44:12;;;;;;;4.95;2.90;;;;;;;;;;5110926;28;20051;-63
2022/08/02 05:46:38;;;;;;;3.15;2.20;;;;;;;;;;5111598;28;20024;-63
2022/08/02 05:49:04;;;;;;;3.95;2.67;;;;;;;;;;5111007;28;20093;-62
2022/08/02 05:53:13;;;;;;;3.60;2.33;;;;;;;;;;5111406;27;20477;-63
2022/08/02 05:55:52;;;;;;;3.30;2.30;;;;;;;;;;5127457;28;20024;-63
2022/08/02 05:58:18;;;;;;;5.82;2.72;;;;;;;;;;5110928;28;20387;-63
2022/08/02 06:00:45;;;;;;;4.25;2.30;;;;;;;;;;5111437;28;20502;-63
2022/08/02 06:05:10;;;;;;;4.35;2.30;;;;;;;;;;5111080;27;20393;-63
2022/08/02 06:07:37;;;;;;;2.72;1.92;;;;;;;;;;5111566;28;20028;-63
2022/08/02 06:10:06;;;;;;;3.33;2.10;;;;;;;;;;5111801;28;20029;-63
2022/08/02 06:12:35;;;;;;;3.45;2.40;;;;;;;;;;5110328;28;20096;-64
2022/08/02 06:15:03;;;;;;;5.10;2.95;;;;;;;;;;5109916;28;20051;-64
2022/08/02 06:17:30;;;;;;;7.30;3.58;;;;;;;;;;5110715;28;20349;-62
2022/08/02 06:20:58;;;;;;;7.50;3.53;;;;;;;;;;5111396;27;20392;-63
2022/08/02 06:23:26;;;;;;;5.78;3.50;;;;;;;;;;5111559;28;20395;-64
2022/08/02 06:25:53;;;;;;;6.15;3.30;;;;;;;;;;5110844;28;20016;-63
2022/08/02 06:28:19;;;;;;;6.57;3.80;;;;;;;;;;5111261;28;20384;-63
2022/08/02 06:32:09;;;;;;;10.10;4.03;;;;;;;;;;5089536;28;20933;-62
2022/08/02 06:34:39;;;;;;;6.03;3.78;;;;;;;;;;5072889;28;20028;-63
2022/08/02 06:37:51;;;;;;;8.73;3.83;;;;;;;;;;5111873;27;20456;-62
2022/08/02 06:40:17;;;;;;;5.22;3.17;;;;;;;;;;5109654;28;20024;-62
2022/08/02 06:42:47;;;;;;;5.70;3.35;;;;;;;;;;5110008;28;20036;-63
2022/08/02 06:45:13;;;;;;;6.68;3.50;;;;;;;;;;5109947;28;20065;-63
2022/08/02 06:48:56;;;;;;;5.75;3.28;;;;;;;;;;5071572;28;20395;-62
2022/08/02 06:51:22;;;;;;;6.53;3.88;;;;;;;;;;5070750;28;20036;-62
2022/08/02 06:55:17;;;;;;;6.13;3.42;;;;;;;;;;5112042;27;20829;-64
2022/08/02 06:57:43;;;;;;;9.23;3.83;;;;;;;;;;5110072;28;20028;-64
2022/08/02 07:00:10;;;;;;;5.00;3.13;;;;;;;;;;5111010;28;20056;-63
2022/08/02 07:02:36;;;;;;;6.22;4.03;;;;;;;;;;5111318;28;20028;-63
2022/08/02 07:05:03;;;;;;;5.65;3.90;;;;;;;;;;5111290;28;20060;-63
2022/08/02 07:07:30;;;;;;;5.78;3.08;;;;;;;;;;5109440;28;20115;-64
2022/08/02 07:09:57;;;;;;;7.95;3.63;;;;;;;;;;5111151;28;20062;-64
2022/08/02 07:13:49;;;;;;;7.50;3.95;;;;;;;;;;5111460;27;20401;-64
2022/08/02 07:16:15;;;;;;;5.53;3.40;;;;;;;;;;5111542;28;20387;-63
2022/08/02 07:18:54;;;;;;;8.90;3.70;;;;;;;;;;5111676;27;20385;-63
2022/08/02 07:21:20;;;;;;;7.65;4.00;;;;;;;;;;5110960;28;20020;-63
2022/08/02 07:23:47;;;;;;;8.98;4.32;;;;;;;;;;5111275;28;20108;-63
2022/08/02 07:26:13;;;;;;;7.38;3.95;;;;;;;;;;5109977;28;20432;-63
2022/08/02 07:28:39;;;;;;;9.43;4.00;;;;;;;;;;5110676;28;20020;-63
2022/08/02 07:31:05;;;;;;;5.80;3.30;;;;;;;;;;5111390;28;20054;-63
2022/08/02 07:33:31;;;;;;;5.85;3.00;;;;;;;;;;5109758;28;20110;-63
2022/08/02 07:39:22;;;;;;;11.95;2.90;;;;;;;;;;5111378;27;20811;-64
2022/08/02 07:41:50;;;;;;;4.95;2.80;;;;;;;;;;5111004;28;20502;-63
2022/08/02 07:44:17;;;;;;;5.45;2.50;;;;;;;;;;5111272;28;20027;-63
2022/08/02 07:46:43;;;;;;;5.43;2.33;;;;;;;;;;5127004;28;20107;-63
2022/08/02 07:49:10;;;;;;;4.40;2.47;;;;;;;;;;5110725;28;20019;-64
2022/08/02 07:51:36;;;;;;;6.15;2.70;;;;;;;;;;5111164;28;20103;-64
2022/08/02 07:54:02;;;;;;;6.45;3.45;;;;;;;;;;5111080;28;20028;-64
2022/08/02 07:56:28;;;;;;;7.45;3.53;;;;;;;;;;5110626;28;20098;-64
2022/08/02 08:00:38;;;;;;;8.07;3.35;;;;;;;;;;5111887;27;20313;-63
2022/08/02 08:03:05;;;;;;;9.50;3.03;;;;;;;;;;5109617;28;20544;-64
2022/08/02 08:05:31;;;;;;;7.07;3.70;;;;;;;;;;5109933;28;20532;-63
2022/08/02 08:07:57;;;;;;;6.20;3.10;;;;;;;;;;5111007;28;20028;-63
2022/08/02 08:10:23;;;;;;;10.65;3.20;;;;;;;;;;5110879;28;20117;-63
2022/08/02 08:12:49;;;;;;;6.28;2.70;;;;;;;;;;5111194;28;20519;-63
2022/08/02 08:15:15;;;;;;;5.05;2.30;;;;;;;;;;5111155;28;20510;-63
2022/08/02 08:17:42;;;;;;;5.88;2.13;;;;;;;;;;5110546;28;20024;-64
2022/08/02 08:20:08;;;;;;;6.03;2.30;;;;;;;;;;5109448;28;20464;-63
2022/08/02 08:23:42;;;;;;;3.42;1.88;;;;;;;;;;5070701;28;20399;-64
2022/08/02 08:26:09;;;;;;;3.65;1.80;;;;;;;;;;5052803;28;20041;-63
2022/08/02 08:28:35;;;;;;;6.90;2.33;;;;;;;;;;5052819;28;20105;-63
2022/08/02 08:31:01;;;;;;;4.25;2.30;;;;;;;;;;5070530;28;20424;-63
2022/08/02 08:33:27;;;;;;;5.45;1.70;;;;;;;;;;5070521;28;20473;-63
2022/08/02 08:35:54;;;;;;;6.30;1.80;;;;;;;;;;5070528;28;20100;-63
2022/08/02 08:38:20;;;;;;;4.78;1.42;;;;;;;;;;5070130;28;20032;-64
2022/08/02 08:40:50;;;;;;;5.03;2.30;;;;;;;;;;5070418;28;20047;-64
2022/08/02 08:43:32;;;;;;;6.57;3.17;;;;;;;;;;5112189;27;20400;-63
2022/08/02 08:45:58;;;;;;;5.38;3.08;;;;;;;;;;5126988;28;20051;-65
2022/08/02 08:48:25;;;;;;;4.18;2.60;;;;;;;;;;5111549;28;20081;-65
2022/08/02 08:51:01;;;;;;;3.55;1.90;;;;;;;;;;5111314;28;20024;-64
2022/08/02 08:53:29;;;;;;;4.15;2.20;;;;;;;;;;5110730;28;20468;-64
2022/08/02 08:55:57;;;;;;;4.63;2.20;;;;;;;;;;5111371;28;20094;-63
2022/08/02 08:58:23;;;;;;;3.03;1.80;;;;;;;;;;5111060;28;20022;-63
2022/08/02 09:00:49;;;;;;;3.50;1.40;;;;;;;;;;5126462;28;20031;-65
2022/08/02 09:03:18;;;;;;;3.92;1.88;;;;;;;;;;5126781;28;20061;-63
2022/08/02 09:05:45;;;;;;;3.33;1.70;;;;;;;;;;5110924;28;20424;-64
2022/08/02 09:08:13;;;;;;;2.88;1.58;;;;;;;;;;5110608;28;20027;-63
2022/08/02 09:12:32;;;;;;;4.50;1.40;;;;;;;;;;5111446;27;20449;-65
2022/08/02 09:14:58;;;;;;;5.22;1.75;;;;;;;;;;5126745;28;20042;-64
2022/08/02 09:17:24;;;;;;;1.58;1.00;;;;;;;;;;5111383;28;20051;-64
2022/08/02 09:20:06;;;;;;;1.35;1.13;;;;;;;;;;5127075;28;20031;-64
2022/08/02 09:22:32;;;;;;;2.05;1.13;;;;;;;;;;5111493;28;20023;-64
2022/08/02 09:25:15;;;;;;;3.40;1.40;;;;;;;;;;5112161;27;20388;-63
2022/08/02 09:27:41;;;;;;;4.38;1.20;;;;;;;;;;5109714;28;20024;-63
2022/08/02 09:30:13;;;;;;;1.20;0.70;;;;;;;;;;5111310;28;20031;-63
2022/08/02 09:32:46;;;;;;;1.08;0.77;;;;;;;;;;5111595;28;20487;-63
2022/08/02 09:35:14;;;;;;;2.13;1.10;;;;;;;;;;5109476;28;20059;-63
2022/08/02 09:37:40;;;;;;;2.95;1.17;;;;;;;;;;5111101;28;20094;-63
2022/08/02 09:40:07;;;;;;;1.98;1.10;;;;;;;;;;5111395;28;20112;-63
2022/08/02 09:42:33;;;;;;;2.30;1.20;;;;;;;;;;5110744;28;20065;-63
2022/08/02 09:45:00;;;;;;;2.25;0.90;;;;;;;;;;5111039;28;20040;-63
2022/08/02 09:47:27;;;;;;;1.83;0.90;;;;;;;;;;5110976;28;20476;-64
2022/08/02 09:49:54;;;;;;;1.83;1.35;;;;;;;;;;5110624;28;20110;-64
2022/08/02 09:52:26;;;;;;;4.25;1.55;;;;;;;;;;5110796;28;20019;-63
2022/08/02 09:54:52;;;;;;;1.75;1.02;;;;;;;;;;5110868;28;20051;-63
2022/08/02 09:57:26;;;;;;;1.67;1.10;;;;;;;;;;5110331;28;20061;-62
2022/08/02 09:59:54;;;;;;;1.17;1.00;;;;;;;;;;5110667;28;20384;-63
2022/08/02 10:02:20;;;;;;;1.38;0.90;;;;;;;;;;5110230;28;20042;-64
2022/08/02 10:04:46;;;;;;;3.25;1.30;;;;;;;;;;5109237;28;20035;-64
2022/08/02 10:07:12;;;;;;;2.67;1.23;;;;;;;;;;5109242;28;20111;-64
2022/08/02 10:09:39;;;;;;;4.15;2.40;;;;;;;;;;5108845;28;20039;-62
2022/08/02 10:12:05;;;;;;;5.68;1.08;;;;;;;;;;5110512;28;20407;-62
2022/08/02 10:14:34;;;;;;;2.53;1.35;;;;;;;;;;5109202;28;20135;-64
2022/08/02 10:17:00;;;;;;;3.10;1.10;;;;;;;;;;5110153;28;20095;-64
2022/08/02 10:19:26;;;;;;;1.45;0.93;;;;;;;;;;5109161;28;20027;-64
2022/08/02 10:21:57;;;;;;;3.38;1.65;;;;;;;;;;5109027;28;20361;-65
2022/08/02 10:24:27;;;;;;;4.60;2.10;;;;;;;;;;5109702;28;20085;-63
2022/08/02 10:26:54;;;;;;;2.45;1.27;;;;;;;;;;5110168;28;20020;-63
2022/08/02 10:29:21;;;;;;;2.78;1.10;;;;;;;;;;5110368;28;20093;-64
2022/08/02 10:31:50;;;;;;;3.10;1.35;;;;;;;;;;5109823;28;20096;-64
2022/08/02 10:34:18;;;;;;;1.30;0.95;;;;;;;;;;5109651;28;20053;-64
2022/08/02 10:36:45;;;;;;;2.90;0.98;;;;;;;;;;5094746;28;20054;-63
2022/08/02 10:39:11;;;;;;;2.70;1.10;;;;;;;;;;5096100;28;20491;-65
2022/08/02 10:41:42;;;;;;;3.95;1.40;;;;;;;;;;5096656;28;20519;-63
2022/08/02 10:44:08;;;;;;;2.92;1.20;;;;;;;;;;5096279;28;20039;-64
2022/08/02 10:46:35;;;;;;;1.88;1.02;;;;;;;;;;5095915;28;20020;-64
2022/08/02 10:49:07;;;;;;;1.73;1.13;;;;;;;;;;5096269;28;20024;-63
2022/08/02 10:51:52;;;;;;;1.20;0.90;;;;;;;;;;5095843;28;20078;-64
2022/08/02 10:54:19;;;;;;;1.42;0.88;;;;;;;;;;5094855;28;20055;-65
2022/08/02 10:56:46;;;;;;;1.90;0.82;;;;;;;;;;5095979;28;20012;-63
2022/08/02 10:59:32;;;;;;;1.42;1.00;;;;;;;;;;5095839;28;20094;-64
2022/08/02 11:02:03;;;;;;;1.73;0.90;;;;;;;;;;5095924;28;20023;-63
2022/08/02 11:04:52;;;;;;;1.80;1.20;;;;;;;;;;5096508;28;20538;-63
2022/08/02 11:07:20;;;;;;;2.90;1.02;;;;;;;;;;5095363;28;20016;-63
2022/08/02 11:09:47;;;;;;;2.15;0.80;;;;;;;;;;5095839;28;20028;-63
2022/08/02 11:12:16;;;;;;;1.70;1.15;;;;;;;;;;5095753;28;20392;-63
2022/08/02 11:14:59;;;;;;;1.33;0.90;;;;;;;;;;5095346;28;20082;-63
2022/08/02 11:17:27;;;;;;;1.45;0.80;;;;;;;;;;5095829;28;20020;-63
2022/08/02 11:20:12;;;;;;;0.80;0.50;;;;;;;;;;5093990;28;20024;-64
2022/08/02 11:22:42;;;;;;;1.40;0.90;;;;;;;;;;5095712;28;20035;-63
2022/08/02 11:25:23;;;;;;;1.52;0.90;;;;;;;;;;5094206;28;20036;-62
2022/08/02 11:27:56;;;;;;;0.73;0.70;;;;;;;;;;5095108;28;20101;-63
2022/08/02 11:30:23;;;;;;;2.40;1.23;;;;;;;;;;5094172;28;20429;-63
2022/08/02 11:32:49;;;;;;;2.88;1.23;;;;;;;;;;5094098;28;20065;-63
2022/08/02 11:35:15;;;;;;;2.67;1.00;;;;;;;;;;5095191;28;20028;-63
2022/08/02 11:37:43;;;;;;;1.40;0.77;;;;;;;;;;5095264;28;20036;-63
2022/08/02 11:40:09;;;;;;;3.28;1.23;;;;;;;;;;5093923;28;20510;-64
2022/08/02 11:42:38;;;;;;;1.98;1.00;;;;;;;;;;5094828;28;20100;-64
2022/08/02 11:45:05;;;;;;;2.13;0.95;;;;;;;;;;5095164;28;20047;-63
2022/08/02 11:47:31;;;;;;;2.97;0.80;;;;;;;;;;5094330;28;20031;-63
2022/08/02 11:50:05;;;;;;;1.23;0.85;;;;;;;;;;5094706;28;20034;-64
2022/08/02 11:52:34;;;;;;;0.57;0.57;;;;;;;;;;5095016;28;20519;-64
2022/08/02 11:55:01;;;;;;;2.75;0.80;;;;;;;;;;5094684;28;20035;-64
2022/08/02 11:57:27;;;;;;;2.80;0.98;;;;;;;;;;5094953;28;20472;-64
2022/08/02 11:59:54;;;;;;;1.45;0.80;;;;;;;;;;5094952;28;20043;-64
2022/08/02 12:02:22;;;;;;;1.30;0.65;;;;;;;;;;5094372;28;20062;-64
2022/08/02 12:04:58;;;;;;;1.42;0.93;;;;;;;;;;5094625;28;20115;-64
2022/08/02 12:07:31;;;;;;;1.02;0.73;;;;;;;;;;5093510;28;20039;-64
2022/08/02 12:10:01;;;;;;;3.30;0.70;;;;;;;;;;5094301;28;20016;-64
2022/08/02 12:12:27;;;;;;;2.40;0.80;;;;;;;;;;5094632;28;20027;-64
2022/08/02 12:14:53;;;;;;;1.90;0.80;;;;;;;;;;5094559;28;20020;-64
2022/08/02 12:20:08;;;;;;;1.17;0.70;;;;;;;;;;5094788;28;20031;-64
2022/08/02 12:22:36;;;;;;;0.93;0.50;;;;;;;;;;5094755;28;20035;-64
2022/08/02 12:25:15;;;;;;;2.78;0.90;;;;;;;;;;5093748;28;20036;-63
2022/08/02 12:27:42;;;;;;;2.33;0.57;;;;;;;;;;5094423;28;20114;-64
2022/08/02 12:30:12;;;;;;;1.67;0.90;;;;;;;;;;5094040;28;20044;-63
2022/08/02 12:32:38;;;;;;;3.03;0.60;;;;;;;;;;5094725;28;20091;-64
2022/08/02 12:35:12;;;;;;;3.35;1.70;;;;;;;;;;5094393;28;20062;-64
2022/08/02 12:37:39;;;;;;;1.40;1.10;;;;;;;;;;5092526;28;20024;-64
2022/08/02 12:40:20;;;;;;;14.13;6.65;;;;;;;;;;5092880;28;20026;-63
2022/08/02 12:42:50;;;;;;;9.85;4.53;;;;;;;;;;5092689;28;20037;-65
2022/08/02 12:45:17;;;;;;;5.97;2.65;;;;;;;;;;5093649;28;20028;-64
2022/08/02 12:47:47;;;;;;;2.33;1.10;;;;;;;;;;5094184;28;20044;-64
2022/08/02 12:50:26;;;;;;;1.00;0.77;;;;;;;;;;5094021;28;20048;-64
2022/08/02 12:53:06;;;;;;;3.47;0.77;;;;;;;;;;5093626;28;20406;-64
2022/08/02 12:55:34;;;;;;;1.67;0.75;;;;;;;;;;5092681;28;20369;-64
2022/08/02 12:58:04;;;;;;;1.08;0.73;;;;;;;;;;5093538;28;20063;-64
2022/08/02 13:00:35;;;;;;;0.90;0.65;;;;;;;;;;5093416;28;20112;-64
2022/08/02 13:03:01;;;;;;;0.90;0.60;;;;;;;;;;5093751;28;20031;-65
2022/08/02 13:05:28;;;;;;;0.77;0.45;;;;;;;;;;5092092;28;20440;-65
2022/08/02 13:07:55;;;;;;;2.63;1.23;;;;;;;;;;5093743;28;20069;-64
2022/08/02 13:10:22;;;;;;;2.05;0.70;;;;;;;;;;5093701;28;20024;-62
2022/08/02 13:12:48;;;;;;;2.35;1.00;;;;;;;;;;5093398;28;20024;-64
2022/08/02 13:15:15;;;;;;;0.90;0.80;;;;;;;;;;5093592;28;20024;-63
2022/08/02 13:17:41;;;;;;;2.13;0.60;;;;;;;;;;5093566;28;20091;-63
2022/08/02 13:20:08;;;;;;;1.00;0.50;;;;;;;;;;5093414;28;20024;-63
2022/08/02 13:22:34;;;;;;;3.05;0.68;;;;;;;;;;5093844;28;20028;-63
2022/08/02 13:25:00;;;;;;;1.38;0.50;;;;;;;;;;5093278;28;20044;-63
2022/08/02 13:27:27;;;;;;;1.40;0.52;;;;;;;;;;5093379;28;20026;-63
2022/08/02 13:29:53;;;;;;;4.85;2.78;;;;;;;;;;5092143;28;20408;-63
2022/08/02 13:32:20;;;;;;;1.08;0.70;;;;;;;;;;5092202;28;20487;-63
2022/08/02 13:34:46;;;;;;;0.77;0.50;;;;;;;;;;5093060;28;20028;-63
2022/08/02 13:37:12;;;;;;;1.13;0.75;;;;;;;;;;5093407;28;20016;-64
2022/08/02 13:39:38;;;;;;;0.63;0.50;;;;;;;;;;5092126;28;20449;-64
2022/08/02 13:42:05;;;;;;;1.08;0.68;;;;;;;;;;5092978;28;20052;-63
2022/08/02 13:44:31;;;;;;;2.22;0.70;;;;;;;;;;5093308;28;20387;-64
2022/08/02 13:46:58;;;;;;;1.48;0.75;;;;;;;;;;5093417;28;20024;-64
2022/08/02 13:49:24;;;;;;;2.30;0.98;;;;;;;;;;5092891;28;20476;-64
2022/08/02 13:51:50;;;;;;;1.92;1.00;;;;;;;;;;5093278;28;20058;-64
2022/08/02 13:54:16;;;;;;;3.55;1.63;;;;;;;;;;5093223;28;20447;-64
2022/08/02 13:56:42;;;;;;;2.67;1.52;;;;;;;;;;5092823;28;20070;-64
2022/08/02 13:59:09;;;;;;;4.80;1.38;;;;;;;;;;5093304;28;20024;-64
2022/08/02 14:01:35;;;;;;;4.38;1.30;;;;;;;;;;5092823;28;20024;-64
2022/08/02 14:04:01;;;;;;;3.30;2.10;;;;;;;;;;5093108;28;20036;-64
2022/08/02 14:06:27;;;;;;;1.55;1.13;;;;;;;;;;5093372;28;20047;-64
2022/08/02 14:08:53;;;;;;;1.05;0.60;;;;;;;;;;5093113;28;20028;-64
2022/08/02 14:11:20;;;;;;;1.10;0.60;;;;;;;;;;5096090;28;20487;-64
2022/08/02 14:13:46;;;;;;;1.50;1.00;;;;;;;;;;5097189;28;20123;-64
2022/08/02 14:16:12;;;;;;;1.17;0.88;;;;;;;;;;5096470;28;20032;-64
2022/08/02 14:18:38;;;;;;;3.55;1.60;;;;;;;;;;5097086;28;20016;-64
2022/08/02 14:21:04;;;;;;;2.70;1.40;;;;;;;;;;5096772;28;20051;-63
2022/08/02 14:23:31;;;;;;;2.80;1.48;;;;;;;;;;5096287;28;20145;-63
2022/08/02 14:25:58;;;;;;;2.95;1.55;;;;;;;;;;5095485;28;20031;-63
2022/08/02 14:28:24;;;;;;;2.67;0.90;;;;;;;;;;5096722;28;20028;-64
2022/08/02 14:30:50;;;;;;;1.23;0.80;;;;;;;;;;5096316;28;20041;-64
2022/08/02 14:33:17;;;;;;;2.60;1.60;;;;;;;;;;5096578;28;20095;-63
2022/08/02 14:35:44;;;;;;;2.60;1.20;;;;;;;;;;5096715;28;20020;-63
2022/08/02 14:38:10;;;;;;;1.20;0.90;;;;;;;;;;5096126;28;20149;-64
2022/08/02 14:40:36;;;;;;;1.85;0.90;;;;;;;;;;5096442;28;20052;-63
2022/08/02 14:43:03;;;;;;;1.15;0.70;;;;;;;;;;5096302;28;20020;-64
2022/08/02 14:45:30;;;;;;;2.13;0.80;;;;;;;;;;5094659;28;20399;-65
2022/08/02 14:47:57;;;;;;;2.90;0.85;;;;;;;;;;5095040;28;20430;-63
2022/08/02 14:50:23;;;;;;;0.70;0.60;;;;;;;;;;5096167;28;20024;-63
2022/08/02 14:52:49;;;;;;;1.73;0.73;;;;;;;;;;5095854;28;20455;-64
2022/08/02 14:55:16;;;;;;;0.95;0.70;;;;;;;;;;5096240;28;20059;-64
2022/08/02 14:57:42;;;;;;;1.50;0.90;;;;;;;;;;5096205;28;20060;-64
2022/08/02 15:00:09;;;;;;;1.55;1.08;;;;;;;;;;5095728;28;20030;-64
2022/08/02 15:02:35;;;;;;;2.58;1.25;;;;;;;;;;5096208;28;20054;-64
2022/08/02 15:05:01;;;;;;;3.28;1.25;;;;;;;;;;5095479;28;20055;-64
2022/08/02 15:07:28;;;;;;;2.47;0.98;;;;;;;;;;5095915;28;20024;-64
2022/08/02 15:09:54;;;;;;;1.13;0.80;;;;;;;;;;5094539;28;20134;-64
2022/08/02 15:12:20;;;;;;;0.95;0.73;;;;;;;;;;5095493;28;20020;-64
2022/08/02 15:14:46;;;;;;;0.68;0.50;;;;;;;;;;5095999;28;20099;-65
2022/08/02 15:17:12;;;;;;;2.13;0.90;;;;;;;;;;5096017;28;20091;-64
2022/08/02 15:19:40;;;;;;;0.80;0.77;;;;;;;;;;5093874;28;20027;-64
2022/08/02 15:22:06;;;;;;;2.33;0.85;;;;;;;;;;5095527;28;20012;-64
2022/08/02 15:24:32;;;;;;;2.03;0.75;;;;;;;;;;5095461;28;20055;-64
2022/08/02 15:26:59;;;;;;;2.22;1.00;;;;;;;;;;5095280;28;20021;-63
2022/08/02 15:29:25;;;;;;;1.40;0.85;;;;;;;;;;5095515;28;20511;-64
2022/08/02 15:31:51;;;;;;;1.65;0.80;;;;;;;;;;5095619;28;20028;-63
2022/08/02 15:34:17;;;;;;;1.42;0.80;;;;;;;;;;5094960;28;20032;-64
2022/08/02 15:36:43;;;;;;;1.20;0.80;;;;;;;;;;5095414;28;20042;-63
2022/08/02 15:39:11;;;;;;;1.35;1.15;;;;;;;;;;5095240;28;20030;-63
2022/08/02 15:41:37;;;;;;;1.58;0.93;;;;;;;;;;5095007;28;20016;-63
2022/08/02 15:44:03;;;;;;;0.88;0.70;;;;;;;;;;5095132;28;20032;-63
2022/08/02 15:46:35;;;;;;;1.02;0.80;;;;;;;;;;5095018;28;20472;-63
2022/08/02 15:49:01;;;;;;;1.35;0.85;;;;;;;;;;5094641;28;20396;-63
2022/08/02 15:51:27;;;;;;;1.48;0.80;;;;;;;;;;5095122;28;20384;-63
2022/08/02 15:53:53;;;;;;;1.30;0.90;;;;;;;;;;5094978;28;20100;-63
2022/08/02 15:56:20;;;;;;;1.80;0.80;;;;;;;;;;5094523;28;20030;-63
2022/08/02 15:58:46;;;;;;;2.13;0.70;;;;;;;;;;5093625;28;20043;-63
2022/08/02 16:01:12;;;;;;;2.00;1.08;;;;;;;;;;5094654;28;20468;-64
2022/08/02 16:03:39;;;;;;;1.63;0.90;;;;;;;;;;5094779;28;20043;-63
2022/08/02 16:06:05;;;;;;;1.05;0.85;;;;;;;;;;5094990;28;20028;-63
2022/08/02 16:08:31;;;;;;;2.40;0.90;;;;;;;;;;5093045;28;20476;-64
2022/08/02 16:10:57;;;;;;;4.40;1.08;;;;;;;;;;5093308;28;20118;-64
2022/08/02 16:16:08;;;;;;;1.85;0.75;;;;;;;;;;5094496;28;20031;-63
2022/08/02 16:18:34;;;;;;;3.63;0.90;;;;;;;;;;5094664;28;20024;-62
2022/08/02 16:21:00;;;;;;;2.55;0.90;;;;;;;;;;5094513;28;20094;-65
2022/08/02 16:23:26;;;;;;;1.30;0.90;;;;;;;;;;5093892;28;20119;-67
2022/08/02 16:25:52;;;;;;;1.50;0.85;;;;;;;;;;5094457;28;20525;-64
2022/08/02 16:28:18;;;;;;;2.80;0.90;;;;;;;;;;5093063;28;20466;-64
2022/08/02 16:30:44;;;;;;;2.70;1.10;;;;;;;;;;5093862;28;20491;-64
2022/08/02 16:33:11;;;;;;;3.28;1.27;;;;;;;;;;5093733;28;20024;-64